Time;durP1;ratioP1;P1;durP2;ratioP2;P2;SDS_P1;SDS_P2;PMS_P1;PMS_P2;Temp;Humidity;BMP_temperature;BMP_pressure;BME280_temperature;BME280_humidity;BME280_pressure;Samples;Min_cycle;Max_cycle;Signal;HPM_P1;HPM_P2
2021/10/04 00:00:48;;;;;;;1.80;0.80;;;;;;;;;;6192187;28;20066;-84
2021/10/04 00:03:49;;;;;;;1.25;0.57;;;;;;;;;;6187002;28;20050;-83
2021/10/04 00:06:51;;;;;;;1.38;1.00;;;;;;;;;;6191764;28;20050;-84
2021/10/04 00:09:54;;;;;;;1.38;1.00;;;;;;;;;;6193345;28;20047;-84
2021/10/04 00:12:56;;;;;;;1.25;0.90;;;;;;;;;;6181763;28;20042;-84
2021/10/04 00:15:58;;;;;;;0.88;0.80;;;;;;;;;;6191354;28;20054;-83
2021/10/04 00:19:00;;;;;;;1.25;1.10;;;;;;;;;;6206371;28;20643;-83
2021/10/04 00:22:02;;;;;;;1.52;0.80;;;;;;;;;;6223776;28;20046;-84
2021/10/04 00:25:05;;;;;;;0.77;0.70;;;;;;;;;;6190397;28;20106;-83
2021/10/04 00:28:07;;;;;;;0.73;0.60;;;;;;;;;;6190298;28;20492;-83
2021/10/04 00:31:08;;;;;;;2.80;0.70;;;;;;;;;;6192754;28;20046;-83
2021/10/04 00:34:10;;;;;;;0.82;0.70;;;;;;;;;;6173367;28;20073;-84
2021/10/04 00:37:11;;;;;;;0.70;0.60;;;;;;;;;;6196091;28;20042;-84
2021/10/04 00:40:17;;;;;;;1.35;0.70;;;;;;;;;;6211149;28;20064;-85
2021/10/04 00:43:21;;;;;;;0.63;0.60;;;;;;;;;;6220424;28;20042;-85
2021/10/04 00:46:24;;;;;;;1.00;0.60;;;;;;;;;;6178415;28;20133;-84
2021/10/04 00:49:25;;;;;;;1.17;0.70;;;;;;;;;;6211214;28;20050;-85
2021/10/04 00:52:27;;;;;;;1.38;0.70;;;;;;;;;;6210532;28;20046;-84
2021/10/04 00:55:29;;;;;;;1.13;0.80;;;;;;;;;;6191379;28;20046;-84
2021/10/04 00:58:32;;;;;;;2.03;0.90;;;;;;;;;;6183491;28;20049;-85
2021/10/04 01:01:33;;;;;;;0.73;0.70;;;;;;;;;;6186903;28;20052;-85
2021/10/04 01:04:35;;;;;;;0.77;0.60;;;;;;;;;;6191680;28;20054;-85
2021/10/04 01:07:37;;;;;;;1.42;0.65;;;;;;;;;;6177289;28;20046;-85
2021/10/04 01:10:39;;;;;;;0.80;0.80;;;;;;;;;;6222221;28;20046;-85
2021/10/04 01:13:40;;;;;;;1.23;0.70;;;;;;;;;;6195685;28;20185;-84
2021/10/04 01:16:43;;;;;;;0.68;0.60;;;;;;;;;;6185044;28;20049;-85
2021/10/04 01:19:45;;;;;;;0.50;0.43;;;;;;;;;;6238578;28;20133;-85
2021/10/04 01:22:48;;;;;;;1.25;0.80;;;;;;;;;;6202477;28;20051;-84
2021/10/04 01:25:50;;;;;;;1.48;0.68;;;;;;;;;;6193237;28;20042;-84
2021/10/04 01:28:52;;;;;;;1.80;0.95;;;;;;;;;;6186744;28;20046;-83
2021/10/04 01:31:53;;;;;;;1.30;0.75;;;;;;;;;;6190652;28;20035;-83
2021/10/04 01:34:56;;;;;;;1.10;0.90;;;;;;;;;;6193136;28;20661;-83
2021/10/04 01:37:58;;;;;;;2.25;0.77;;;;;;;;;;6176351;28;20411;-83
2021/10/04 01:40:59;;;;;;;0.90;0.70;;;;;;;;;;6192583;28;20189;-84
2021/10/04 01:44:01;;;;;;;1.20;0.50;;;;;;;;;;6192787;28;20129;-84
2021/10/04 01:47:03;;;;;;;0.70;0.65;;;;;;;;;;6193476;28;20069;-84
2021/10/04 01:50:07;;;;;;;0.82;0.68;;;;;;;;;;6226888;28;20043;-83
2021/10/04 01:53:09;;;;;;;0.90;0.65;;;;;;;;;;6192409;28;20052;-84
2021/10/04 01:56:10;;;;;;;1.45;0.50;;;;;;;;;;6187451;28;20096;-83
2021/10/04 01:59:12;;;;;;;1.00;0.60;;;;;;;;;;6195083;28;20052;-83
2021/10/04 02:02:14;;;;;;;0.60;0.50;;;;;;;;;;6193749;28;20056;-83
2021/10/04 02:05:16;;;;;;;1.55;0.70;;;;;;;;;;6195918;28;20049;-84
2021/10/04 02:08:18;;;;;;;1.23;0.70;;;;;;;;;;6193339;28;20039;-83
2021/10/04 02:11:20;;;;;;;2.30;0.60;;;;;;;;;;6193080;28;20047;-83
2021/10/04 02:14:21;;;;;;;0.77;0.57;;;;;;;;;;6193095;28;20568;-83
2021/10/04 02:17:23;;;;;;;1.08;0.70;;;;;;;;;;6174570;28;20527;-83
2021/10/04 02:20:28;;;;;;;2.35;0.57;;;;;;;;;;6226023;28;20116;-84
2021/10/04 02:23:30;;;;;;;1.17;0.77;;;;;;;;;;6193149;28;20048;-83
2021/10/04 02:26:31;;;;;;;0.82;0.82;;;;;;;;;;6192114;28;20046;-83
2021/10/04 02:29:33;;;;;;;0.55;0.50;;;;;;;;;;6176925;28;20074;-83
2021/10/04 02:32:35;;;;;;;1.05;0.82;;;;;;;;;;6193165;28;20050;-83
2021/10/04 02:35:37;;;;;;;0.57;0.40;;;;;;;;;;6193686;28;20141;-83
2021/10/04 02:38:39;;;;;;;0.87;0.57;;;;;;;;;;6191973;28;20042;-84
2021/10/04 02:41:41;;;;;;;0.98;0.60;;;;;;;;;;6190301;28;20447;-84
2021/10/04 02:44:42;;;;;;;0.98;0.70;;;;;;;;;;6193660;28;20046;-84
2021/10/04 02:47:47;;;;;;;0.45;0.45;;;;;;;;;;6192299;28;20052;-85
2021/10/04 02:50:49;;;;;;;1.90;0.70;;;;;;;;;;6189676;28;20050;-84
2021/10/04 02:53:50;;;;;;;1.13;0.70;;;;;;;;;;6190906;28;20054;-84
2021/10/04 02:56:52;;;;;;;1.27;0.60;;;;;;;;;;6203431;28;20043;-83
2021/10/04 02:59:53;;;;;;;2.25;0.80;;;;;;;;;;6190209;28;20036;-83
2021/10/04 03:02:55;;;;;;;1.73;0.80;;;;;;;;;;6220105;28;20140;-83
2021/10/04 03:05:57;;;;;;;0.95;0.68;;;;;;;;;;6190148;28;20695;-84
2021/10/04 03:08:58;;;;;;;0.93;0.70;;;;;;;;;;6190792;28;20411;-83
2021/10/04 03:12:00;;;;;;;0.73;0.70;;;;;;;;;;6186982;28;20050;-82
2021/10/04 03:15:03;;;;;;;0.98;0.60;;;;;;;;;;6193522;28;20038;-82
2021/10/04 03:18:05;;;;;;;3.67;0.70;;;;;;;;;;6192905;28;20042;-83
2021/10/04 03:21:06;;;;;;;1.08;0.73;;;;;;;;;;6194239;28;20064;-82
2021/10/04 03:24:10;;;;;;;0.60;0.60;;;;;;;;;;6186695;28;20060;-83
2021/10/04 03:27:11;;;;;;;;;;;;;;;;;;6196941;28;20086;-83
2021/10/04 03:30:13;;;;;;;0.68;0.50;;;;;;;;;;6177919;28;20581;-84
2021/10/04 03:33:16;;;;;;;1.85;0.60;;;;;;;;;;6218584;28;20045;-83
2021/10/04 03:36:18;;;;;;;1.38;0.60;;;;;;;;;;6192624;28;20141;-83
2021/10/04 03:39:19;;;;;;;2.15;0.68;;;;;;;;;;6190781;28;20042;-82
2021/10/04 03:42:21;;;;;;;2.28;1.08;;;;;;;;;;6192507;28;20053;-83
2021/10/04 03:45:23;;;;;;;1.02;0.60;;;;;;;;;;6209865;28;20046;-83
2021/10/04 03:48:24;;;;;;;7.55;3.13;;;;;;;;;;6189531;28;20042;-82
2021/10/04 03:51:30;;;;;;;1.23;0.55;;;;;;;;;;6197394;28;20185;-83
2021/10/04 03:54:31;;;;;;;1.30;0.60;;;;;;;;;;6196426;28;20039;-82
2021/10/04 03:57:34;;;;;;;1.02;0.73;;;;;;;;;;6198460;28;20072;-83
2021/10/04 04:00:35;;;;;;;6.10;3.03;;;;;;;;;;6180458;28;20054;-82
2021/10/04 04:03:38;;;;;;;3.30;2.72;;;;;;;;;;6192803;28;20066;-82
2021/10/04 04:06:41;;;;;;;2.60;2.40;;;;;;;;;;6209752;28;20038;-82
2021/10/04 04:09:42;;;;;;;0.30;0.30;;;;;;;;;;6210325;28;20050;-84
2021/10/04 04:12:45;;;;;;;1.67;0.70;;;;;;;;;;6191238;28;20058;-84
2021/10/04 04:15:47;;;;;;;0.63;0.50;;;;;;;;;;6195350;28;20065;-83
2021/10/04 04:18:49;;;;;;;3.20;0.60;;;;;;;;;;6174112;28;20046;-82
2021/10/04 04:21:50;;;;;;;0.90;0.60;;;;;;;;;;6195426;28;20042;-82
2021/10/04 04:24:52;;;;;;;0.88;0.60;;;;;;;;;;6197647;28;20102;-82
2021/10/04 04:27:58;;;;;;;4.60;2.38;;;;;;;;;;6195059;28;20522;-83
2021/10/04 04:31:01;;;;;;;4.43;3.10;;;;;;;;;;6195503;28;20109;-83
2021/10/04 04:34:03;;;;;;;3.00;2.15;;;;;;;;;;6189347;28;20074;-83
2021/10/04 04:37:05;;;;;;;5.18;1.20;;;;;;;;;;6196799;28;20615;-83
2021/10/04 04:40:10;;;;;;;2.70;1.35;;;;;;;;;;6178383;28;20125;-83
2021/10/04 04:43:11;;;;;;;1.13;0.77;;;;;;;;;;6188029;28;20060;-84
2021/10/04 04:46:13;;;;;;;1.02;0.88;;;;;;;;;;6196662;28;20042;-83
2021/10/04 04:49:14;;;;;;;1.05;0.80;;;;;;;;;;6197314;28;20141;-83
2021/10/04 04:52:16;;;;;;;1.92;0.85;;;;;;;;;;6197285;28;20062;-83
2021/10/04 04:55:18;;;;;;;1.50;0.93;;;;;;;;;;6197127;28;20089;-83
2021/10/04 04:58:21;;;;;;;1.58;0.90;;;;;;;;;;6175461;28;20053;-84
2021/10/04 05:01:22;;;;;;;1.00;0.90;;;;;;;;;;6169800;28;20632;-83
2021/10/04 05:04:24;;;;;;;2.03;0.90;;;;;;;;;;6169957;28;20056;-83
2021/10/04 05:07:26;;;;;;;2.20;0.68;;;;;;;;;;6171979;28;20528;-83
2021/10/04 05:10:28;;;;;;;1.33;0.70;;;;;;;;;;6172737;28;20042;-83
2021/10/04 05:13:29;;;;;;;2.47;0.90;;;;;;;;;;6173009;28;20040;-83
2021/10/04 05:16:31;;;;;;;1.83;0.70;;;;;;;;;;6192071;28;20181;-83
2021/10/04 05:19:33;;;;;;;1.20;0.70;;;;;;;;;;6194993;28;20034;-86
2021/10/04 05:22:38;;;;;;;1.20;0.93;;;;;;;;;;6193713;28;20145;-82
2021/10/04 05:25:39;;;;;;;3.25;1.08;;;;;;;;;;6194079;28;20038;-84
2021/10/04 05:28:41;;;;;;;1.13;0.80;;;;;;;;;;6176735;28;20049;-84
2021/10/04 05:31:44;;;;;;;3.00;1.15;;;;;;;;;;6194877;28;20046;-83
2021/10/04 05:34:46;;;;;;;3.72;2.13;;;;;;;;;;6195367;28;20051;-84
2021/10/04 05:37:49;;;;;;;4.70;3.03;;;;;;;;;;6196757;28;20043;-82
2021/10/04 05:40:51;;;;;;;1.85;1.50;;;;;;;;;;6185182;28;20098;-84
2021/10/04 05:43:52;;;;;;;2.00;1.50;;;;;;;;;;6192916;28;20047;-84
2021/10/04 05:46:54;;;;;;;2.78;1.00;;;;;;;;;;6192374;28;20049;-84
2021/10/04 05:49:56;;;;;;;2.38;1.52;;;;;;;;;;6195243;28;20085;-86
2021/10/04 05:52:57;;;;;;;5.10;2.10;;;;;;;;;;6179676;28;20051;-85
2021/10/04 05:55:59;;;;;;;1.20;1.10;;;;;;;;;;6179764;28;20055;-85
2021/10/04 05:59:01;;;;;;;17.17;6.63;;;;;;;;;;6196801;28;20110;-84
2021/10/04 06:02:03;;;;;;;16.90;6.43;;;;;;;;;;6196342;28;20129;-85
2021/10/04 06:05:06;;;;;;;10.20;5.55;;;;;;;;;;6184739;28;20041;-86
2021/10/04 06:08:07;;;;;;;11.70;4.25;;;;;;;;;;6185579;28;20108;-85
2021/10/04 06:11:09;;;;;;;10.00;3.40;;;;;;;;;;6183976;28;20180;-84
2021/10/04 06:14:11;;;;;;;6.43;2.08;;;;;;;;;;6217884;28;20052;-86
2021/10/04 06:17:12;;;;;;;5.57;1.70;;;;;;;;;;6203112;28;20050;-84
2021/10/04 06:20:14;;;;;;;3.35;1.90;;;;;;;;;;6233288;28;20042;-83
2021/10/04 06:23:16;;;;;;;5.45;2.20;;;;;;;;;;6216803;28;20484;-85
2021/10/04 06:26:18;;;;;;;5.10;1.95;;;;;;;;;;6210367;28;20053;-83
2021/10/04 06:29:19;;;;;;;3.75;1.67;;;;;;;;;;6202238;28;20046;-83
2021/10/04 06:32:21;;;;;;;3.88;1.95;;;;;;;;;;6198026;28;20169;-86
2021/10/04 06:35:22;;;;;;;2.70;1.63;;;;;;;;;;6203242;28;20562;-83
2021/10/04 06:38:24;;;;;;;4.70;1.73;;;;;;;;;;6215294;28;20038;-83
2021/10/04 06:41:29;;;;;;;1.33;1.10;;;;;;;;;;6203153;28;20913;-82
2021/10/04 06:44:30;;;;;;;1.77;1.20;;;;;;;;;;6258066;28;20096;-83
2021/10/04 06:47:34;;;;;;;3.58;1.45;;;;;;;;;;6202993;28;20396;-84
2021/10/04 06:50:36;;;;;;;1.43;1.33;;;;;;;;;;6201226;28;20045;-84
2021/10/04 06:53:38;;;;;;;3.00;1.37;;;;;;;;;;6201133;28;20049;-84
2021/10/04 06:56:39;;;;;;;2.22;1.30;;;;;;;;;;6200905;28;20505;-84
2021/10/04 06:59:41;;;;;;;2.35;1.52;;;;;;;;;;6201800;28;20157;-83
2021/10/04 07:02:44;;;;;;;1.40;1.25;;;;;;;;;;6224257;28;20479;-83
2021/10/04 07:05:47;;;;;;;1.95;1.25;;;;;;;;;;6201317;28;20049;-85
2021/10/04 07:08:49;;;;;;;;;;;;;;;;;;6201075;28;20069;-83
2021/10/04 07:11:51;;;;;;;4.05;1.90;;;;;;;;;;6199098;28;19974;-83
2021/10/04 07:14:52;;;;;;;4.28;2.00;;;;;;;;;;6215508;28;20042;-82
2021/10/04 07:17:54;;;;;;;4.18;2.42;;;;;;;;;;6223819;28;20050;-82
2021/10/04 07:20:56;;;;;;;2.78;2.00;;;;;;;;;;6195835;28;20049;-81
2021/10/04 07:23:59;;;;;;;2.63;1.90;;;;;;;;;;6188793;28;20133;-83
2021/10/04 07:27:01;;;;;;;3.85;2.03;;;;;;;;;;6184836;28;20038;-82
2021/10/04 07:30:05;;;;;;;4.38;2.10;;;;;;;;;;6185353;28;20125;-81
2021/10/04 07:33:07;;;;;;;2.15;1.92;;;;;;;;;;6208533;28;20042;-82
2021/10/04 07:36:09;;;;;;;7.65;1.90;;;;;;;;;;6187906;28;20046;-83
2021/10/04 07:39:10;;;;;;;4.43;1.75;;;;;;;;;;6188964;28;20048;-83
2021/10/04 07:42:12;;;;;;;3.67;1.70;;;;;;;;;;6185504;28;20496;-81
2021/10/04 07:45:14;;;;;;;3.45;1.55;;;;;;;;;;6225084;28;20411;-81
2021/10/04 07:48:16;;;;;;;5.60;1.77;;;;;;;;;;6197272;28;20064;-83
2021/10/04 07:51:17;;;;;;;7.70;1.80;;;;;;;;;;6181391;28;20053;-83
2021/10/04 07:54:19;;;;;;;3.22;1.70;;;;;;;;;;6199290;28;20046;-81
2021/10/04 07:57:21;;;;;;;4.32;1.77;;;;;;;;;;6199579;28;20137;-83
2021/10/04 08:00:22;;;;;;;6.30;1.83;;;;;;;;;;6201718;28;20129;-84
2021/10/04 08:03:24;;;;;;;3.15;1.38;;;;;;;;;;6195983;28;20085;-82
2021/10/04 08:06:28;;;;;;;2.95;0.90;;;;;;;;;;6202888;28;20101;-80
2021/10/04 08:09:30;;;;;;;1.63;0.90;;;;;;;;;;6201412;28;20559;-85
2021/10/04 08:12:32;;;;;;;4.03;0.60;;;;;;;;;;6196041;28;20039;-84
2021/10/04 08:15:34;;;;;;;1.00;0.90;;;;;;;;;;6203830;28;20046;-84
2021/10/04 08:18:36;;;;;;;0.73;0.57;;;;;;;;;;6201482;28;20047;-83
2021/10/04 08:21:37;;;;;;;1.48;0.73;;;;;;;;;;6232407;28;20058;-82
2021/10/04 08:24:40;;;;;;;2.28;0.90;;;;;;;;;;6194326;28;20045;-86
2021/10/04 08:27:41;;;;;;;1.63;0.80;;;;;;;;;;6184016;28;20052;-85
2021/10/04 08:30:43;;;;;;;2.08;0.82;;;;;;;;;;6185986;28;20147;-83
2021/10/04 08:33:45;;;;;;;2.20;0.90;;;;;;;;;;6200189;28;20125;-85
2021/10/04 08:36:46;;;;;;;2.35;0.80;;;;;;;;;;6202494;28;20448;-84
2021/10/04 08:39:48;;;;;;;2.15;1.00;;;;;;;;;;6225610;28;20050;-83
2021/10/04 08:42:49;;;;;;;1.17;0.80;;;;;;;;;;6198844;28;20054;-84
2021/10/04 08:45:54;;;;;;;1.38;1.25;;;;;;;;;;6196590;28;20141;-84
2021/10/04 08:48:56;;;;;;;1.00;0.90;;;;;;;;;;6197467;28;20085;-85
2021/10/04 08:51:59;;;;;;;2.80;1.02;;;;;;;;;;6202441;28;20117;-85
2021/10/04 08:55:01;;;;;;;;;;;;;;;;;;6202339;28;20527;-84
2021/10/04 08:58:10;;;;;;;1.65;1.05;;;;;;;;;;6230960;28;19944;-86
2021/10/04 09:01:12;;;;;;;3.97;1.20;;;;;;;;;;6195321;28;20511;-81
2021/10/04 09:04:22;;;;;;;2.63;1.33;;;;;;;;;;6189600;28;20043;-82
2021/10/04 09:07:37;;;;;;;1.42;1.10;;;;;;;;;;6189663;28;20471;-81
2021/10/04 09:10:42;;;;;;;1.92;1.15;;;;;;;;;;6219580;28;20092;-82
2021/10/04 09:13:48;;;;;;;1.50;1.17;;;;;;;;;;6194347;28;20595;-80
2021/10/04 09:16:50;;;;;;;1.10;1.00;;;;;;;;;;6168501;28;20042;-80
2021/10/04 09:19:53;;;;;;;1.52;1.13;;;;;;;;;;6188153;28;20500;-80
2021/10/04 09:22:54;;;;;;;1.30;1.10;;;;;;;;;;6189010;28;20496;-83
2021/10/04 09:25:56;;;;;;;1.65;1.10;;;;;;;;;;6187285;28;20050;-81
2021/10/04 09:28:59;;;;;;;1.60;0.90;;;;;;;;;;6191754;28;20520;-82
2021/10/04 09:32:00;;;;;;;1.58;1.10;;;;;;;;;;6219415;28;20038;-81
2021/10/04 09:35:16;;;;;;;1.85;1.10;;;;;;;;;;6190139;28;20112;-79
2021/10/04 09:38:17;;;;;;;1.92;1.00;;;;;;;;;;6193255;28;20740;-82
2021/10/04 09:41:19;;;;;;;2.25;0.93;;;;;;;;;;6192663;28;20042;-79
2021/10/04 09:44:21;;;;;;;2.42;1.00;;;;;;;;;;6193814;28;20050;-80
2021/10/04 09:47:55;;;;;;;1.60;0.90;;;;;;;;;;6203321;28;20053;-81
2021/10/04 09:51:18;;;;;;;3.03;1.15;;;;;;;;;;6153637;28;20074;-82
2021/10/04 09:54:23;;;;;;;2.00;1.10;;;;;;;;;;6180055;28;20458;-79
2021/10/04 09:57:24;;;;;;;3.05;1.30;;;;;;;;;;6164036;28;20043;-80
2021/10/04 10:00:37;;;;;;;1.70;1.30;;;;;;;;;;6200613;28;20346;-80
2021/10/04 10:03:41;;;;;;;1.60;0.82;;;;;;;;;;6198928;28;20050;-80
2021/10/04 10:06:47;;;;;;;1.20;1.00;;;;;;;;;;6203411;28;20050;-84
2021/10/04 10:10:00;;;;;;;2.30;0.93;;;;;;;;;;6202908;28;20649;-85
2021/10/04 10:13:03;;;;;;;1.33;0.83;;;;;;;;;;6200696;28;20062;-83
2021/10/04 10:16:09;;;;;;;1.27;0.90;;;;;;;;;;6187079;28;20045;-84
2021/10/04 10:19:15;;;;;;;1.05;0.90;;;;;;;;;;6201375;28;20478;-83
2021/10/04 10:22:19;;;;;;;1.27;1.10;;;;;;;;;;6203840;28;20138;-83
2021/10/04 10:25:42;;;;;;;1.63;1.10;;;;;;;;;;6177879;28;20534;-83
2021/10/04 10:28:44;;;;;;;1.08;0.90;;;;;;;;;;6171529;28;20439;-84
2021/10/04 10:31:51;;;;;;;1.35;0.70;;;;;;;;;;6219183;28;20435;-84
2021/10/04 10:34:54;;;;;;;1.80;0.80;;;;;;;;;;6203601;28;20058;-85
2021/10/04 10:37:55;;;;;;;3.38;0.80;;;;;;;;;;6219556;28;20125;-84
2021/10/04 10:41:17;;;;;;;1.33;0.70;;;;;;;;;;6236041;28;20054;-84
2021/10/04 10:44:19;;;;;;;2.58;1.02;;;;;;;;;;6200248;28;20070;-84
2021/10/04 10:47:33;;;;;;;1.05;0.80;;;;;;;;;;6205314;28;20124;-84
2021/10/04 10:50:38;;;;;;;1.27;0.80;;;;;;;;;;6235936;28;20054;-84
2021/10/04 10:53:40;;;;;;;0.82;0.80;;;;;;;;;;6203427;28;20137;-84
2021/10/04 10:56:52;;;;;;;2.38;1.15;;;;;;;;;;6204704;28;20070;-86
2021/10/04 11:00:14;;;;;;;2.42;1.15;;;;;;;;;;6187740;28;20070;-84
2021/10/04 11:03:22;;;;;;;2.45;1.02;;;;;;;;;;6194099;28;20042;-85
2021/10/04 11:06:41;;;;;;;2.88;1.00;;;;;;;;;;6196727;28;20065;-87
2021/10/04 11:10:07;;;;;;;2.53;1.38;;;;;;;;;;6212890;28;20054;-83
2021/10/04 11:13:09;;;;;;;3.35;0.90;;;;;;;;;;6200922;28;20531;-83
2021/10/04 11:16:10;;;;;;;0.95;0.80;;;;;;;;;;6203552;28;20475;-83
2021/10/04 11:19:25;;;;;;;1.05;0.75;;;;;;;;;;6207185;28;20793;-83
2021/10/04 11:22:27;;;;;;;2.13;0.95;;;;;;;;;;6202777;28;20046;-83
2021/10/04 11:25:30;;;;;;;1.95;1.10;;;;;;;;;;6201663;28;20407;-85
2021/10/04 11:28:37;;;;;;;2.08;1.40;;;;;;;;;;6200630;28;20046;-84
2021/10/04 11:31:44;;;;;;;2.38;0.85;;;;;;;;;;6194923;28;20068;-84
2021/10/04 11:34:45;;;;;;;1.80;0.70;;;;;;;;;;6178393;28;20046;-83
2021/10/04 11:37:47;;;;;;;7.75;4.72;;;;;;;;;;6208214;28;20567;-83
2021/10/04 11:40:49;;;;;;;9.18;5.57;;;;;;;;;;6188544;28;20077;-84
2021/10/04 11:44:00;;;;;;;4.82;2.00;;;;;;;;;;6191319;28;20058;-84
2021/10/04 11:47:04;;;;;;;3.80;1.70;;;;;;;;;;6190561;28;20050;-83
2021/10/04 11:50:13;;;;;;;2.10;0.98;;;;;;;;;;6193088;28;20094;-86
2021/10/04 11:53:16;;;;;;;4.28;1.50;;;;;;;;;;6174266;28;20125;-84
2021/10/04 11:56:17;;;;;;;1.23;1.13;;;;;;;;;;6192442;28;20081;-84
2021/10/04 11:59:19;;;;;;;2.97;0.90;;;;;;;;;;6201483;28;20101;-84
2021/10/04 12:02:23;;;;;;;3.25;0.80;;;;;;;;;;6195518;28;20054;-86
2021/10/04 12:05:31;;;;;;;1.38;1.10;;;;;;;;;;6194268;28;20078;-82
2021/10/04 12:08:37;;;;;;;1.10;0.80;;;;;;;;;;6177258;28;20049;-83
2021/10/04 12:11:56;;;;;;;1.77;1.10;;;;;;;;;;6193614;28;20062;-83
2021/10/04 12:14:59;;;;;;;2.53;0.80;;;;;;;;;;6196883;28;20038;-85
2021/10/04 12:18:01;;;;;;;;;;;;;;;;;;6181318;28;20560;-84
2021/10/04 12:21:26;;;;;;;2.00;0.95;;;;;;;;;;6210384;28;19932;-84
2021/10/04 12:24:30;;;;;;;1.30;1.00;;;;;;;;;;6225160;28;20046;-86
2021/10/04 12:27:32;;;;;;;4.28;1.48;;;;;;;;;;6198714;28;20644;-83
2021/10/04 12:31:00;;;;;;;1.70;1.20;;;;;;;;;;6195089;28;20049;-82
2021/10/04 12:34:25;;;;;;;1.57;1.10;;;;;;;;;;6204699;28;20503;-88
2021/10/04 12:37:30;;;;;;;2.92;1.30;;;;;;;;;;6198143;28;20434;-88
2021/10/04 12:40:44;;;;;;;2.38;1.00;;;;;;;;;;6218579;28;20044;-85
2021/10/04 12:43:46;;;;;;;1.58;1.30;;;;;;;;;;6205434;28;20189;-84
2021/10/04 12:47:11;;;;;;;2.63;1.27;;;;;;;;;;6194539;28;20744;-85
2021/10/04 12:50:20;;;;;;;1.52;1.20;;;;;;;;;;6195292;28;20066;-86
2021/10/04 12:53:24;;;;;;;1.83;1.70;;;;;;;;;;6193737;28;20052;-87
2021/10/04 12:56:35;;;;;;;2.70;1.90;;;;;;;;;;6195183;28;20048;-86
2021/10/04 12:59:36;;;;;;;2.35;1.70;;;;;;;;;;6226114;28;20502;-86
2021/10/04 13:02:38;;;;;;;3.03;2.10;;;;;;;;;;6227084;28;20046;-83
2021/10/04 13:05:40;;;;;;;2.65;1.63;;;;;;;;;;6179031;28;20042;-85
2021/10/04 13:08:42;;;;;;;2.65;1.80;;;;;;;;;;6210088;28;20184;-86
2021/10/04 13:11:49;;;;;;;3.80;2.33;;;;;;;;;;6193518;28;20057;-86
2021/10/04 13:14:51;;;;;;;4.43;2.30;;;;;;;;;;6193047;28;20526;-84
2021/10/04 13:17:53;;;;;;;5.63;3.27;;;;;;;;;;6191655;28;20068;-83
2021/10/04 13:20:55;;;;;;;5.45;2.55;;;;;;;;;;6193217;28;20042;-82
2021/10/04 13:23:56;;;;;;;4.00;2.28;;;;;;;;;;6194968;28;20121;-87
2021/10/04 13:26:58;;;;;;;1.83;1.70;;;;;;;;;;6187403;28;20419;-83
2021/10/04 13:29:59;;;;;;;3.55;1.58;;;;;;;;;;6193322;28;20042;-82
2021/10/04 13:33:01;;;;;;;1.95;1.75;;;;;;;;;;6218550;28;20050;-85
2021/10/04 13:36:04;;;;;;;2.42;2.00;;;;;;;;;;6200519;28;20051;-85
2021/10/04 13:39:07;;;;;;;2.97;1.60;;;;;;;;;;6198923;28;20046;-84
2021/10/04 13:42:09;;;;;;;2.45;1.80;;;;;;;;;;6191987;28;20534;-85
2021/10/04 13:45:11;;;;;;;3.05;1.75;;;;;;;;;;6195590;28;20129;-86
2021/10/04 13:48:13;;;;;;;3.03;1.80;;;;;;;;;;6194529;28;20141;-85
2021/10/04 13:51:15;;;;;;;1.60;1.40;;;;;;;;;;6221074;28;20045;-85
2021/10/04 13:54:17;;;;;;;1.83;1.67;;;;;;;;;;6228735;28;20062;-85
2021/10/04 13:57:19;;;;;;;1.38;1.25;;;;;;;;;;6193347;28;20072;-86
2021/10/04 14:00:24;;;;;;;2.22;1.70;;;;;;;;;;6181325;28;20042;-87
2021/10/04 14:03:27;;;;;;;1.45;1.17;;;;;;;;;;6196064;28;20125;-86
2021/10/04 14:06:30;;;;;;;1.60;1.30;;;;;;;;;;6196104;28;20042;-86
2021/10/04 14:09:36;;;;;;;2.10;1.40;;;;;;;;;;6196925;28;20166;-85
2021/10/04 14:12:38;;;;;;;2.25;1.30;;;;;;;;;;6193887;28;20046;-85
2021/10/04 14:15:41;;;;;;;;;;;;;;;;;;6191731;28;20790;-85
2021/10/04 14:18:43;;;;;;;2.72;1.38;;;;;;;;;;6192872;28;19933;-84
2021/10/04 14:21:44;;;;;;;2.72;1.70;;;;;;;;;;6173729;28;20524;-84
2021/10/04 14:24:46;;;;;;;3.70;1.65;;;;;;;;;;6193797;28;20547;-82
2021/10/04 14:27:50;;;;;;;2.25;1.60;;;;;;;;;;6187452;28;20065;-86
2021/10/04 14:30:56;;;;;;;1.80;1.50;;;;;;;;;;6178393;28;20138;-84
2021/10/04 14:33:57;;;;;;;2.47;1.40;;;;;;;;;;6173184;28;20055;-83
2021/10/04 14:36:59;;;;;;;1.92;1.35;;;;;;;;;;6210248;28;20038;-85
2021/10/04 14:40:03;;;;;;;2.13;1.40;;;;;;;;;;6194022;28;20042;-84
2021/10/04 14:43:04;;;;;;;3.30;1.30;;;;;;;;;;6193510;28;20054;-85
2021/10/04 14:46:06;;;;;;;3.78;1.50;;;;;;;;;;6227351;28;20048;-84
2021/10/04 14:49:08;;;;;;;2.10;1.63;;;;;;;;;;6206746;28;20061;-83
2021/10/04 14:52:10;;;;;;;1.27;1.17;;;;;;;;;;6195450;28;20045;-84
2021/10/04 14:55:12;;;;;;;2.40;1.38;;;;;;;;;;6194649;28;20039;-84
2021/10/04 14:58:14;;;;;;;1.58;1.30;;;;;;;;;;6185098;28;20052;-83
2021/10/04 15:01:16;;;;;;;2.67;1.30;;;;;;;;;;6206747;28;20066;-84
2021/10/04 15:04:19;;;;;;;2.13;1.33;;;;;;;;;;6206237;28;20622;-84
2021/10/04 15:07:20;;;;;;;1.73;1.10;;;;;;;;;;6187809;28;20125;-82
2021/10/04 15:10:23;;;;;;;1.10;1.00;;;;;;;;;;6187803;28;20088;-84
2021/10/04 15:13:24;;;;;;;1.60;1.10;;;;;;;;;;6180195;28;20066;-84
2021/10/04 15:16:26;;;;;;;2.22;0.90;;;;;;;;;;6216945;28;20034;-83
2021/10/04 15:19:28;;;;;;;1.77;1.13;;;;;;;;;;6189731;28;20113;-83
2021/10/04 15:22:30;;;;;;;1.88;1.30;;;;;;;;;;6220724;28;20141;-83
2021/10/04 15:25:32;;;;;;;0.90;0.85;;;;;;;;;;6185795;28;20047;-83
2021/10/04 15:28:33;;;;;;;2.08;1.00;;;;;;;;;;6179592;28;20043;-84
2021/10/04 15:31:35;;;;;;;1.70;1.10;;;;;;;;;;6188456;28;20125;-83
2021/10/04 15:34:37;;;;;;;0.80;0.80;;;;;;;;;;6183418;28;20543;-82
2021/10/04 15:37:38;;;;;;;1.52;1.40;;;;;;;;;;6195139;28;20182;-86
2021/10/04 15:40:40;;;;;;;1.60;1.17;;;;;;;;;;6196160;28;20117;-85
2021/10/04 15:43:43;;;;;;;1.10;0.90;;;;;;;;;;6168845;28;20046;-84
2021/10/04 15:46:48;;;;;;;1.40;1.30;;;;;;;;;;6181371;28;20057;-85
2021/10/04 15:49:50;;;;;;;2.45;1.35;;;;;;;;;;6203137;28;20057;-85
2021/10/04 15:52:52;;;;;;;1.30;1.20;;;;;;;;;;6197250;28;20146;-84
2021/10/04 15:55:55;;;;;;;1.25;0.90;;;;;;;;;;6200868;28;20183;-85
2021/10/04 15:58:56;;;;;;;1.60;1.05;;;;;;;;;;6197571;28;20097;-85
2021/10/04 16:01:58;;;;;;;1.80;1.00;;;;;;;;;;6192949;28;20046;-85
2021/10/04 16:05:00;;;;;;;1.48;1.38;;;;;;;;;;6182419;28;20056;-84
2021/10/04 16:08:07;;;;;;;2.10;1.30;;;;;;;;;;6199310;28;20051;-84
2021/10/04 16:11:11;;;;;;;2.80;1.77;;;;;;;;;;6198076;28;20062;-83
2021/10/04 16:14:30;;;;;;;3.33;2.10;;;;;;;;;;6180792;28;20082;-83
2021/10/04 16:17:31;;;;;;;2.47;2.00;;;;;;;;;;6195892;28;20052;-83
2021/10/04 16:20:34;;;;;;;1.40;1.30;;;;;;;;;;6212531;28;20496;-84
2021/10/04 16:23:35;;;;;;;2.10;1.08;;;;;;;;;;6214243;28;20042;-82
2021/10/04 16:26:38;;;;;;;1.55;1.20;;;;;;;;;;6177152;28;20049;-83
2021/10/04 16:29:41;;;;;;;1.67;1.20;;;;;;;;;;6190516;28;20043;-85
2021/10/04 16:32:43;;;;;;;2.88;1.08;;;;;;;;;;6194569;28;20057;-87
2021/10/04 16:35:44;;;;;;;1.80;1.40;;;;;;;;;;6229880;28;20052;-86
2021/10/04 16:38:47;;;;;;;3.03;2.08;;;;;;;;;;6178321;28;20098;-86
2021/10/04 16:41:48;;;;;;;3.45;1.98;;;;;;;;;;6206182;28;20038;-84
2021/10/04 16:44:50;;;;;;;1.25;1.00;;;;;;;;;;6190998;28;20054;-85
2021/10/04 16:47:52;;;;;;;1.65;0.98;;;;;;;;;;6186089;28;20046;-84
2021/10/04 16:50:54;;;;;;;1.53;1.10;;;;;;;;;;6194770;28;20130;-83
2021/10/04 16:53:56;;;;;;;2.35;1.00;;;;;;;;;;6191667;28;20450;-89
2021/10/04 16:56:58;;;;;;;1.80;1.10;;;;;;;;;;6194611;28;20508;-83
2021/10/04 17:00:00;;;;;;;0.98;0.90;;;;;;;;;;6196003;28;20050;-83
2021/10/04 17:03:01;;;;;;;2.30;1.90;;;;;;;;;;6191096;28;20443;-84
2021/10/04 17:06:04;;;;;;;3.92;2.45;;;;;;;;;;6197082;28;20062;-84
2021/10/04 17:09:06;;;;;;;2.95;1.85;;;;;;;;;;6180076;28;20050;-85
2021/10/04 17:12:07;;;;;;;3.50;3.00;;;;;;;;;;6170106;28;20042;-84
2021/10/04 17:15:10;;;;;;;2.47;1.70;;;;;;;;;;6197813;28;20097;-85
2021/10/04 17:18:12;;;;;;;1.80;1.37;;;;;;;;;;6192662;28;20053;-85
2021/10/04 17:21:15;;;;;;;2.92;1.80;;;;;;;;;;6178820;28;20042;-85
2021/10/04 17:24:21;;;;;;;2.58;1.50;;;;;;;;;;6193944;28;20042;-84
2021/10/04 17:27:23;;;;;;;2.33;1.65;;;;;;;;;;6222891;28;20042;-84
2021/10/04 17:30:25;;;;;;;3.85;2.60;;;;;;;;;;6204018;28;20121;-83
2021/10/04 17:33:28;;;;;;;3.45;2.50;;;;;;;;;;6184284;28;20043;-82
2021/10/04 17:36:29;;;;;;;3.88;2.70;;;;;;;;;;6190376;28;20057;-84
2021/10/04 17:39:31;;;;;;;2.40;2.20;;;;;;;;;;6189112;28;20168;-83
2021/10/04 17:42:33;;;;;;;18.05;9.48;;;;;;;;;;6186822;28;20054;-84
2021/10/04 17:45:34;;;;;;;18.02;8.30;;;;;;;;;;6193568;28;20510;-86
2021/10/04 17:48:36;;;;;;;16.35;11.13;;;;;;;;;;6193600;28;20042;-85
2021/10/04 17:51:39;;;;;;;17.80;10.52;;;;;;;;;;6227793;28;20126;-86
2021/10/04 17:54:41;;;;;;;20.77;12.13;;;;;;;;;;6189437;28;20041;-85
2021/10/04 17:57:42;;;;;;;18.50;10.25;;;;;;;;;;6189702;28;20138;-87
2021/10/04 18:00:44;;;;;;;11.77;7.70;;;;;;;;;;6198556;28;20078;-85
2021/10/04 18:03:46;;;;;;;7.70;5.03;;;;;;;;;;6181356;28;20057;-86
2021/10/04 18:06:48;;;;;;;6.05;3.80;;;;;;;;;;6197251;28;20052;-87
2021/10/04 18:09:50;;;;;;;4.93;3.40;;;;;;;;;;6193580;28;20125;-86
2021/10/04 18:12:53;;;;;;;12.77;10.85;;;;;;;;;;6197128;28;20050;-84
2021/10/04 18:15:55;;;;;;;14.18;12.32;;;;;;;;;;6198938;28;20113;-86
2021/10/04 18:18:57;;;;;;;8.25;6.68;;;;;;;;;;6189317;28;20042;-84